createdAt,value
2019-04-13T00:00:17.544Z,11.38
2019-04-13T00:00:48.794Z,10.60
2019-04-13T00:01:19.972Z,11.05
2019-04-13T00:01:51.225Z,10.78
2019-04-13T00:02:22.451Z,11.25
2019-04-13T00:02:53.645Z,10.55
2019-04-13T00:03:24.858Z,10.15
2019-04-13T00:03:56.078Z,10.78
2019-04-13T00:04:29.544Z,11.08
2019-04-13T00:05:00.222Z,10.18
2019-04-13T00:05:31.432Z,10.68
2019-04-13T00:06:02.641Z,10.75
2019-04-13T00:06:33.885Z,10.80
2019-04-13T00:07:05.121Z,10.63
2019-04-13T00:07:36.357Z,10.40
2019-04-13T00:08:07.553Z,11.03
2019-04-13T00:08:38.770Z,10.65
2019-04-13T00:09:09.980Z,11.20
2019-04-13T00:09:41.188Z,12.43
2019-04-13T00:10:12.405Z,12.18
2019-04-13T00:10:43.616Z,12.28
2019-04-13T00:11:14.882Z,12.43
2019-04-13T00:11:46.094Z,12.00
2019-04-13T00:12:17.313Z,11.95
2019-04-13T00:12:48.509Z,12.33
2019-04-13T00:13:19.737Z,12.53
2019-04-13T00:13:50.983Z,12.58
2019-04-13T00:14:22.178Z,12.58
2019-04-13T00:14:53.407Z,12.35
2019-04-13T00:15:24.623Z,12.80
2019-04-13T00:15:55.838Z,12.37
2019-04-13T00:16:27.087Z,12.85
2019-04-13T00:16:58.315Z,12.73
2019-04-13T00:17:29.520Z,12.85
2019-04-13T00:18:00.725Z,12.58
2019-04-13T00:18:31.933Z,13.15
2019-04-13T00:19:03.157Z,12.43
2019-04-13T00:19:34.360Z,12.35
2019-04-13T00:20:05.576Z,12.90
2019-04-13T00:20:36.845Z,12.58
2019-04-13T00:21:08.028Z,13.10
2019-04-13T00:21:39.299Z,13.43
2019-04-13T00:22:10.504Z,13.25
2019-04-13T00:22:41.710Z,12.58
2019-04-13T00:23:12.930Z,12.07
2019-04-13T00:23:44.142Z,13.38
2019-04-13T00:24:15.353Z,13.28
2019-04-13T00:24:46.571Z,12.90
2019-04-13T00:25:17.782Z,13.65
2019-04-13T00:25:48.996Z,14.38
2019-04-13T00:26:20.207Z,13.32
2019-04-13T00:26:51.432Z,13.50
2019-04-13T00:27:22.644Z,13.28
2019-04-13T00:27:53.904Z,14.07
2019-04-13T00:28:25.112Z,13.65
2019-04-13T00:28:56.325Z,14.45
2019-04-13T00:29:27.547Z,14.78
2019-04-13T00:29:58.777Z,14.18
2019-04-13T00:30:29.972Z,15.80
2019-04-13T00:31:01.203Z,15.20
2019-04-13T00:31:32.423Z,15.03
2019-04-13T00:32:03.716Z,15.35
2019-04-13T00:32:34.917Z,15.23
2019-04-13T00:33:06.133Z,16.07
2019-04-13T00:33:37.325Z,15.05
2019-04-13T00:34:08.544Z,15.48
2019-04-13T00:34:41.626Z,14.65
2019-04-13T00:35:12.729Z,14.58
2019-04-13T00:35:43.987Z,13.40
2019-04-13T00:36:15.193Z,13.68
2019-04-13T00:36:46.412Z,13.25
2019-04-13T00:37:17.643Z,12.93
2019-04-13T00:37:48.843Z,13.60
2019-04-13T00:38:20.067Z,13.85
2019-04-13T00:38:51.265Z,14.60
2019-04-13T00:39:22.519Z,13.53
2019-04-13T00:39:53.728Z,14.63
2019-04-13T00:40:24.935Z,14.40
2019-04-13T00:40:56.197Z,14.38
2019-04-13T00:41:27.401Z,15.43
2019-04-13T00:41:58.611Z,15.30
2019-04-13T00:42:29.887Z,15.28
2019-04-13T00:43:01.155Z,15.05
2019-04-13T00:43:32.358Z,15.15
2019-04-13T00:44:03.583Z,15.98
2019-04-13T00:44:34.807Z,16.12
2019-04-13T00:45:06.021Z,17.50
2019-04-13T00:45:37.230Z,16.17
2019-04-13T00:46:08.484Z,17.85
2019-04-13T00:46:39.698Z,17.60
2019-04-13T00:47:10.917Z,17.17
2019-04-13T00:47:42.124Z,17.40
2019-04-13T00:48:13.365Z,15.90
2019-04-13T00:48:44.578Z,17.02
2019-04-13T00:49:15.782Z,17.05
2019-04-13T00:49:46.988Z,16.82
2019-04-13T00:50:18.219Z,18.07
2019-04-13T00:50:49.419Z,17.65
2019-04-13T00:51:20.689Z,17.25
2019-04-13T00:51:51.909Z,17.02
2019-04-13T00:52:23.117Z,16.35
2019-04-13T00:52:54.325Z,16.32
2019-04-13T00:53:25.551Z,14.73
2019-04-13T00:53:56.804Z,15.53
2019-04-13T00:54:27.984Z,13.32
2019-04-13T00:54:59.194Z,13.53
2019-04-13T00:55:30.413Z,14.83
2019-04-13T00:56:01.675Z,13.45
2019-04-13T00:56:32.899Z,13.80
2019-04-13T00:57:04.118Z,13.68
2019-04-13T00:57:35.336Z,12.78
2019-04-13T00:58:06.535Z,12.43
2019-04-13T00:58:37.761Z,11.40
2019-04-13T00:59:08.989Z,11.45
2019-04-13T00:59:40.263Z,11.90
2019-04-13T01:00:11.481Z,11.90
2019-04-13T01:00:42.702Z,10.72
2019-04-13T01:01:14.022Z,10.70
2019-04-13T01:01:45.261Z,10.93
2019-04-13T01:02:16.467Z,12.00
2019-04-13T01:02:47.680Z,12.30
2019-04-13T01:03:18.880Z,11.20
2019-04-13T01:03:50.110Z,11.88
2019-04-13T01:04:21.327Z,11.75
2019-04-13T01:04:53.622Z,11.97
2019-04-13T01:05:25.108Z,12.55
2019-04-13T01:05:56.369Z,11.53
2019-04-13T01:06:27.593Z,11.53
2019-04-13T01:06:58.805Z,12.37
2019-04-13T01:07:30.013Z,12.90
2019-04-13T01:08:01.219Z,12.07
2019-04-13T01:08:32.427Z,11.83
2019-04-13T01:09:03.642Z,11.78
2019-04-13T01:09:35.210Z,12.35
2019-04-13T01:10:06.431Z,12.25
2019-04-13T01:10:37.636Z,12.75
2019-04-13T01:11:08.922Z,12.65
2019-04-13T01:11:40.149Z,13.43
2019-04-13T01:12:11.358Z,12.13
2019-04-13T01:12:42.565Z,13.15
2019-04-13T01:13:13.778Z,12.78
2019-04-13T01:13:44.983Z,12.35
2019-04-13T01:14:16.194Z,12.37
2019-04-13T01:14:47.413Z,12.23
2019-04-13T01:15:19.006Z,12.37
2019-04-13T01:15:50.227Z,12.23
2019-04-13T01:16:21.474Z,12.33
2019-04-13T01:16:52.712Z,13.15
2019-04-13T01:17:23.948Z,12.98
2019-04-13T01:17:55.158Z,13.08
2019-04-13T01:18:26.356Z,12.63
2019-04-13T01:18:57.559Z,13.22
2019-04-13T01:19:28.784Z,13.85
2019-04-13T01:20:00.015Z,13.35
2019-04-13T01:20:31.227Z,13.95
2019-04-13T01:21:02.797Z,13.53
2019-04-13T01:21:34.052Z,13.68
2019-04-13T01:22:05.266Z,14.58
2019-04-13T01:22:36.486Z,13.40
2019-04-13T01:23:07.694Z,13.72
2019-04-13T01:23:38.902Z,13.78
2019-04-13T01:24:10.115Z,13.85
2019-04-13T01:24:41.367Z,14.03
2019-04-13T01:25:12.619Z,13.38
2019-04-13T01:25:43.835Z,14.03
2019-04-13T01:26:15.043Z,13.75
2019-04-13T01:26:46.252Z,13.35
2019-04-13T01:27:17.463Z,14.07
2019-04-13T01:27:48.677Z,14.43
2019-04-13T01:28:19.940Z,15.20
2019-04-13T01:28:51.148Z,14.03
2019-04-13T01:29:22.363Z,14.75
2019-04-13T01:29:53.582Z,14.25
2019-04-13T01:30:24.815Z,14.98
2019-04-13T01:30:56.030Z,14.75
2019-04-13T01:31:27.239Z,14.80
2019-04-13T01:31:58.457Z,16.00
2019-04-13T01:32:29.665Z,15.23
2019-04-13T01:33:00.867Z,15.78
2019-04-13T01:33:32.132Z,15.78
2019-04-13T01:34:03.347Z,15.10
2019-04-13T01:34:34.552Z,16.00
2019-04-13T01:35:06.333Z,15.48
2019-04-13T01:35:37.680Z,16.23
2019-04-13T01:36:08.898Z,16.37
2019-04-13T01:36:40.104Z,16.97
2019-04-13T01:37:11.324Z,15.95
2019-04-13T01:37:42.542Z,16.35
2019-04-13T01:38:14.677Z,15.93
2019-04-13T01:38:45.923Z,15.15
2019-04-13T01:39:17.206Z,16.17
2019-04-13T01:39:48.410Z,16.55
2019-04-13T01:40:19.674Z,16.23
2019-04-13T01:40:50.872Z,17.17
2019-04-13T01:41:22.095Z,16.80
2019-04-13T01:41:53.320Z,17.37
2019-04-13T01:42:24.546Z,15.93
2019-04-13T01:42:55.757Z,15.38
2019-04-13T01:43:27.008Z,14.95
2019-04-13T01:43:58.244Z,15.00
2019-04-13T01:44:29.458Z,14.40
2019-04-13T01:45:00.664Z,14.47
2019-04-13T01:45:31.864Z,13.60
2019-04-13T01:46:03.085Z,14.28
2019-04-13T01:46:34.290Z,15.05
2019-04-13T01:47:05.499Z,13.98
2019-04-13T01:47:36.741Z,14.90
2019-04-13T01:48:07.948Z,15.28
2019-04-13T01:48:39.212Z,14.45
2019-04-13T01:49:10.745Z,14.73
2019-04-13T01:49:41.966Z,13.88
2019-04-13T01:50:13.202Z,14.23
2019-04-13T01:50:44.391Z,13.80
2019-04-13T01:51:15.654Z,13.90
2019-04-13T01:51:46.864Z,14.10
2019-04-13T01:52:18.079Z,13.70
2019-04-13T01:52:49.291Z,15.40
2019-04-13T01:53:20.504Z,15.05
2019-04-13T01:53:51.722Z,15.20
2019-04-13T01:54:22.937Z,14.93
2019-04-13T01:54:54.197Z,13.95
2019-04-13T01:55:25.395Z,14.95
2019-04-13T01:55:56.601Z,14.15
2019-04-13T01:56:27.859Z,15.08
2019-04-13T01:56:59.243Z,15.40
2019-04-13T01:57:30.435Z,14.53
2019-04-13T01:58:01.660Z,15.40
2019-04-13T01:58:32.873Z,15.98
2019-04-13T01:59:04.086Z,15.30
2019-04-13T01:59:35.297Z,15.18
2019-04-13T02:00:06.503Z,15.93
2019-04-13T02:00:37.709Z,15.88
2019-04-13T02:01:08.904Z,15.55
2019-04-13T02:01:40.181Z,15.68
2019-04-13T02:02:11.405Z,16.23
2019-04-13T02:02:42.622Z,15.88
2019-04-13T02:03:13.880Z,16.35
2019-04-13T02:03:45.169Z,14.43
2019-04-13T02:04:16.383Z,14.90
2019-04-13T02:04:47.596Z,14.38
2019-04-13T02:05:18.798Z,14.47
2019-04-13T02:05:50.042Z,14.23
2019-04-13T02:06:21.265Z,13.50
2019-04-13T02:06:52.492Z,14.23
2019-04-13T02:07:23.704Z,14.30
2019-04-13T02:07:54.950Z,14.15
2019-04-13T02:08:26.159Z,13.90
2019-04-13T02:08:57.746Z,15.10
2019-04-13T02:09:28.947Z,15.30
2019-04-13T02:10:00.149Z,14.35
2019-04-13T02:10:31.354Z,13.05
2019-04-13T02:11:02.592Z,13.32
2019-04-13T02:11:33.809Z,13.98
2019-04-13T02:12:05.416Z,13.60
2019-04-13T02:12:36.630Z,13.83
2019-04-13T02:13:07.836Z,13.78
2019-04-13T02:13:39.042Z,13.15
2019-04-13T02:14:10.250Z,12.43
2019-04-13T02:14:41.456Z,12.33
2019-04-13T02:15:12.669Z,13.98
2019-04-13T02:15:43.941Z,11.88
2019-04-13T02:16:15.135Z,11.45
2019-04-13T02:16:46.345Z,11.57
2019-04-13T02:17:17.552Z,10.05
2019-04-13T02:17:48.785Z,11.00
2019-04-13T02:18:19.988Z,10.98
2019-04-13T02:18:51.202Z,11.08
2019-04-13T02:19:22.416Z,11.83
2019-04-13T02:19:53.626Z,10.40
2019-04-13T02:20:24.836Z,9.45
2019-04-13T02:20:56.101Z,9.58
2019-04-13T02:21:27.351Z,9.90
2019-04-13T02:21:58.565Z,10.82
2019-04-13T02:22:29.769Z,10.23
2019-04-13T02:23:00.973Z,10.32
2019-04-13T02:23:32.184Z,11.57
2019-04-13T02:24:03.395Z,11.53
2019-04-13T02:24:34.594Z,11.22
2019-04-13T02:25:05.806Z,11.08
2019-04-13T02:25:37.028Z,11.30
2019-04-13T02:26:08.218Z,10.90
2019-04-13T02:26:39.477Z,11.20
2019-04-13T02:27:10.716Z,11.85
2019-04-13T02:27:41.925Z,11.25
2019-04-13T02:28:13.129Z,11.93
2019-04-13T02:28:44.357Z,12.47
2019-04-13T02:29:15.568Z,11.97
2019-04-13T02:29:46.803Z,12.93
2019-04-13T02:30:18.002Z,12.28
2019-04-13T02:30:49.225Z,12.53
2019-04-13T02:31:20.435Z,12.85
2019-04-13T02:31:51.704Z,12.40
2019-04-13T02:32:22.928Z,12.18
2019-04-13T02:32:54.148Z,12.18
2019-04-13T02:33:25.343Z,13.50
2019-04-13T02:33:56.552Z,12.45
2019-04-13T02:34:27.767Z,12.68
2019-04-13T02:34:58.987Z,13.15
2019-04-13T02:35:35.702Z,13.28
2019-04-13T02:36:03.146Z,13.22
2019-04-13T02:36:34.373Z,13.43
2019-04-13T02:37:05.643Z,13.10
2019-04-13T02:37:36.902Z,13.30
2019-04-13T02:38:08.086Z,12.88
2019-04-13T02:38:39.336Z,13.05
2019-04-13T02:39:10.534Z,13.48
2019-04-13T02:39:41.742Z,13.15
2019-04-13T02:40:12.953Z,13.00
2019-04-13T02:40:44.213Z,13.25
2019-04-13T02:41:15.429Z,14.28
2019-04-13T02:41:46.645Z,13.88
2019-04-13T02:42:17.920Z,14.15
2019-04-13T02:42:49.164Z,14.40
2019-04-13T02:43:20.381Z,13.10
2019-04-13T02:43:51.629Z,13.72
2019-04-13T02:44:22.938Z,13.22
2019-04-13T02:44:54.144Z,13.45
2019-04-13T02:45:25.356Z,13.80
2019-04-13T02:45:56.682Z,13.32
2019-04-13T02:46:27.977Z,13.30
2019-04-13T02:46:59.203Z,13.32
2019-04-13T02:47:30.418Z,13.43
2019-04-13T02:48:01.650Z,13.80
2019-04-13T02:48:32.844Z,13.50
2019-04-13T02:49:04.105Z,15.23
2019-04-13T02:49:35.323Z,14.05
2019-04-13T02:50:06.552Z,13.88
2019-04-13T02:50:37.756Z,15.13
2019-04-13T02:51:09.016Z,14.40
2019-04-13T02:51:40.223Z,15.08
2019-04-13T02:52:11.451Z,14.83
2019-04-13T02:52:42.649Z,14.85
2019-04-13T02:53:13.857Z,14.63
2019-04-13T02:53:45.067Z,14.10
2019-04-13T02:54:16.301Z,14.65
2019-04-13T02:54:47.497Z,14.90
2019-04-13T02:55:18.703Z,14.85
2019-04-13T02:55:50.265Z,14.65
2019-04-13T02:56:21.513Z,15.32
2019-04-13T02:56:52.727Z,14.00
2019-04-13T02:57:23.951Z,14.00
2019-04-13T02:57:55.168Z,13.13
2019-04-13T02:58:26.410Z,13.45
2019-04-13T02:58:57.628Z,12.75
2019-04-13T02:59:28.866Z,13.60
2019-04-13T03:00:00.097Z,13.38
2019-04-13T03:00:31.358Z,13.35
2019-04-13T03:01:02.594Z,13.95
2019-04-13T03:01:33.858Z,14.47
2019-04-13T03:02:05.137Z,13.50
2019-04-13T03:02:36.364Z,13.20
2019-04-13T03:03:07.577Z,13.88
2019-04-13T03:03:38.805Z,13.53
2019-04-13T03:04:10.014Z,12.40
2019-04-13T03:04:41.233Z,12.25
2019-04-13T03:05:12.440Z,14.00
2019-04-13T03:05:47.086Z,12.47
2019-04-13T03:06:16.631Z,12.75
2019-04-13T03:06:47.867Z,12.25
2019-04-13T03:07:19.078Z,12.90
2019-04-13T03:07:50.293Z,11.97
2019-04-13T03:08:21.501Z,12.63
2019-04-13T03:08:52.720Z,11.70
2019-04-13T03:09:23.926Z,12.70
2019-04-13T03:09:55.142Z,12.60
2019-04-13T03:10:26.349Z,12.78
2019-04-13T03:10:57.598Z,11.28
2019-04-13T03:11:28.844Z,12.65
2019-04-13T03:12:00.061Z,12.45
2019-04-13T03:12:31.274Z,12.23
2019-04-13T03:13:02.535Z,11.73
2019-04-13T03:13:33.748Z,12.80
2019-04-13T03:14:04.961Z,12.70
2019-04-13T03:14:36.159Z,12.13
2019-04-13T03:15:07.367Z,13.00
2019-04-13T03:15:38.570Z,12.60
2019-04-13T03:16:09.794Z,11.93
2019-04-13T03:16:41.046Z,12.07
2019-04-13T03:17:12.279Z,11.75
2019-04-13T03:17:43.505Z,12.35
2019-04-13T03:18:14.734Z,11.30
2019-04-13T03:18:45.943Z,11.38
2019-04-13T03:19:17.143Z,11.65
2019-04-13T03:19:48.364Z,11.60
2019-04-13T03:20:19.577Z,11.28
2019-04-13T03:20:50.825Z,11.70
2019-04-13T03:21:22.050Z,11.60
2019-04-13T03:21:53.312Z,11.50
2019-04-13T03:22:24.575Z,11.30
2019-04-13T03:22:55.794Z,11.73
2019-04-13T03:23:27.018Z,11.22
2019-04-13T03:23:58.230Z,11.45
2019-04-13T03:24:29.437Z,11.75
2019-04-13T03:25:00.638Z,11.43
2019-04-13T03:25:31.899Z,11.28
2019-04-13T03:26:03.138Z,11.65
2019-04-13T03:26:34.320Z,11.78
2019-04-13T03:27:05.533Z,11.70
2019-04-13T03:27:36.754Z,11.75
2019-04-13T03:28:07.964Z,12.15
2019-04-13T03:28:39.193Z,11.50
2019-04-13T03:29:10.429Z,11.55
2019-04-13T03:29:41.769Z,11.60
2019-04-13T03:30:13.021Z,12.18
2019-04-13T03:30:44.194Z,10.60
2019-04-13T03:31:15.404Z,10.85
2019-04-13T03:31:46.640Z,11.43
2019-04-13T03:32:17.881Z,11.33
2019-04-13T03:32:49.144Z,11.10
2019-04-13T03:33:20.354Z,11.08
2019-04-13T03:33:51.565Z,10.80
2019-04-13T03:34:22.776Z,11.33
2019-04-13T03:34:53.988Z,11.08
2019-04-13T03:35:25.202Z,11.28
2019-04-13T03:35:59.452Z,11.30
2019-04-13T03:36:29.389Z,11.08
2019-04-13T03:37:00.613Z,11.40
2019-04-13T03:37:31.822Z,11.48
2019-04-13T03:38:03.049Z,12.03
2019-04-13T03:38:34.315Z,11.57
2019-04-13T03:39:05.524Z,11.78
2019-04-13T03:39:36.742Z,11.40
2019-04-13T03:40:07.948Z,11.68
2019-04-13T03:40:39.159Z,11.55
2019-04-13T03:41:10.397Z,12.07
2019-04-13T03:41:41.599Z,11.50
2019-04-13T03:42:12.845Z,12.73
2019-04-13T03:42:44.061Z,12.13
2019-04-13T03:43:15.273Z,11.33
2019-04-13T03:43:46.514Z,12.15
2019-04-13T03:44:17.712Z,12.70
2019-04-13T03:44:48.927Z,11.93
2019-04-13T03:45:20.144Z,11.38
2019-04-13T03:45:51.356Z,11.60
2019-04-13T03:46:22.542Z,11.30
2019-04-13T03:46:53.754Z,11.53
2019-04-13T03:47:25.000Z,10.72
2019-04-13T03:47:56.217Z,11.33
2019-04-13T03:48:27.462Z,11.25
2019-04-13T03:48:58.670Z,11.22
2019-04-13T03:49:29.881Z,10.68
2019-04-13T03:50:01.097Z,11.10
2019-04-13T03:50:32.302Z,10.55
2019-04-13T03:51:03.510Z,10.70
2019-04-13T03:51:34.717Z,10.80
2019-04-13T03:52:05.925Z,10.75
2019-04-13T03:52:37.258Z,10.43
2019-04-13T03:53:08.473Z,10.82
2019-04-13T03:53:39.735Z,10.25
2019-04-13T03:54:10.935Z,10.28
2019-04-13T03:54:42.164Z,10.75
2019-04-13T03:55:13.384Z,11.63
2019-04-13T03:55:44.606Z,11.28
2019-04-13T03:56:15.818Z,10.93
2019-04-13T03:56:47.027Z,11.38
2019-04-13T03:57:18.268Z,11.45
2019-04-13T03:57:49.466Z,11.97
2019-04-13T03:58:20.705Z,11.95
2019-04-13T03:58:51.926Z,11.00
2019-04-13T03:59:23.140Z,11.60
2019-04-13T03:59:54.358Z,11.25
2019-04-13T04:00:25.745Z,11.40
2019-04-13T04:00:56.946Z,10.35
2019-04-13T04:01:28.189Z,10.28
2019-04-13T04:01:59.405Z,9.78
2019-04-13T04:02:30.616Z,9.10
2019-04-13T04:03:01.801Z,8.73
2019-04-13T04:03:33.000Z,9.08
2019-04-13T04:04:04.197Z,9.90
2019-04-13T04:04:35.397Z,9.28
2019-04-13T04:05:06.597Z,9.45
2019-04-13T04:05:37.798Z,9.73
2019-04-13T04:06:11.836Z,8.85
2019-04-13T04:06:41.985Z,8.78
2019-04-13T04:07:13.218Z,9.03
2019-04-13T04:07:44.421Z,9.53
2019-04-13T04:08:15.639Z,9.65
2019-04-13T04:08:46.869Z,9.03
2019-04-13T04:09:18.069Z,8.60
2019-04-13T04:09:49.270Z,8.50
2019-04-13T04:10:20.468Z,8.88
2019-04-13T04:10:51.679Z,9.40
2019-04-13T04:11:22.903Z,8.35
2019-04-13T04:11:54.144Z,9.40
2019-04-13T04:12:25.352Z,9.38
2019-04-13T04:12:56.578Z,9.65
2019-04-13T04:13:27.807Z,9.08
2019-04-13T04:13:59.041Z,9.50
2019-04-13T04:14:30.301Z,9.60
2019-04-13T04:15:01.517Z,8.83
2019-04-13T04:15:32.712Z,9.38
2019-04-13T04:16:03.924Z,9.08
2019-04-13T04:16:35.206Z,8.93
2019-04-13T04:17:06.429Z,8.63
2019-04-13T04:17:37.639Z,8.80
2019-04-13T04:18:08.845Z,8.48
2019-04-13T04:18:40.163Z,8.45
2019-04-13T04:19:11.369Z,8.23
2019-04-13T04:19:42.597Z,8.23
2019-04-13T04:20:13.824Z,8.33
2019-04-13T04:20:45.034Z,8.48
2019-04-13T04:21:16.243Z,8.23
2019-04-13T04:21:47.445Z,7.40
2019-04-13T04:22:18.654Z,8.03
2019-04-13T04:22:49.883Z,7.65
2019-04-13T04:23:21.067Z,7.62
2019-04-13T04:23:52.327Z,7.37
2019-04-13T04:24:23.527Z,7.62
2019-04-13T04:24:54.736Z,8.20
2019-04-13T04:25:25.934Z,7.58
2019-04-13T04:25:57.143Z,7.05
2019-04-13T04:26:28.410Z,7.17
2019-04-13T04:26:59.603Z,7.87
2019-04-13T04:27:30.808Z,7.17
2019-04-13T04:28:02.010Z,7.85
2019-04-13T04:28:33.207Z,7.37
2019-04-13T04:29:04.433Z,7.25
2019-04-13T04:29:35.684Z,7.67
2019-04-13T04:30:06.932Z,7.65
2019-04-13T04:30:38.128Z,7.53
2019-04-13T04:31:09.333Z,7.10
2019-04-13T04:31:40.529Z,7.62
2019-04-13T04:32:11.753Z,7.30
2019-04-13T04:32:42.965Z,7.08
2019-04-13T04:33:14.247Z,7.47
2019-04-13T04:33:45.452Z,7.45
2019-04-13T04:34:17.998Z,6.78
2019-04-13T04:34:49.437Z,7.50
2019-04-13T04:35:20.647Z,7.28
2019-04-13T04:35:51.864Z,7.50
2019-04-13T04:36:24.243Z,7.15
2019-04-13T04:36:55.642Z,8.40
2019-04-13T04:37:26.839Z,7.15
2019-04-13T04:37:58.050Z,7.72
2019-04-13T04:38:29.305Z,7.85
2019-04-13T04:39:00.500Z,8.53
2019-04-13T04:39:31.697Z,9.00
2019-04-13T04:40:02.904Z,8.83
2019-04-13T04:40:35.415Z,8.55
2019-04-13T04:41:06.692Z,9.48
2019-04-13T04:41:37.905Z,9.28
2019-04-13T04:42:09.127Z,8.80
2019-04-13T04:42:40.320Z,9.18
2019-04-13T04:43:11.521Z,9.30
2019-04-13T04:43:42.738Z,9.98
2019-04-13T04:44:13.986Z,9.25
2019-04-13T04:44:45.195Z,9.95
2019-04-13T04:45:16.408Z,10.05
2019-04-13T04:45:47.610Z,9.50
2019-04-13T04:46:18.820Z,9.15
2019-04-13T04:46:50.031Z,10.20
2019-04-13T04:47:21.232Z,10.70
2019-04-13T04:47:52.442Z,8.70
2019-04-13T04:48:23.648Z,8.70
2019-04-13T04:48:54.904Z,8.53
2019-04-13T04:49:26.113Z,8.73
2019-04-13T04:49:57.336Z,9.60
2019-04-13T04:50:28.537Z,9.30
2019-04-13T04:51:10.448Z,8.85
2019-04-13T04:51:32.704Z,9.85
2019-04-13T04:52:03.945Z,9.35
2019-04-13T04:52:35.166Z,10.80
2019-04-13T04:53:06.377Z,10.20
2019-04-13T04:53:37.595Z,10.30
2019-04-13T04:54:08.860Z,8.95
2019-04-13T04:54:40.064Z,8.43
2019-04-13T04:55:11.258Z,8.85
2019-04-13T04:55:42.600Z,8.88
2019-04-13T04:56:13.777Z,8.88
2019-04-13T04:56:44.991Z,8.83
2019-04-13T04:57:16.248Z,9.10
2019-04-13T04:57:47.446Z,8.55
2019-04-13T04:58:18.654Z,7.42
2019-04-13T04:58:49.896Z,7.92
2019-04-13T04:59:21.125Z,8.53
2019-04-13T04:59:52.321Z,8.38
2019-04-13T05:00:23.514Z,8.90
2019-04-13T05:00:54.724Z,8.95
2019-04-13T05:01:25.930Z,9.65
2019-04-13T05:01:57.138Z,9.88
2019-04-13T05:02:28.355Z,9.98
2019-04-13T05:02:59.563Z,9.20
2019-04-13T05:03:30.788Z,10.18
2019-04-13T05:04:02.033Z,10.00
2019-04-13T05:04:33.246Z,11.12
2019-04-13T05:05:04.446Z,9.10
2019-04-13T05:05:35.658Z,11.33
2019-04-13T05:06:06.896Z,12.47
2019-04-13T05:06:38.098Z,12.93
2019-04-13T05:07:09.318Z,13.90
2019-04-13T05:07:40.514Z,13.18
2019-04-13T05:08:14.627Z,13.53
2019-04-13T05:08:44.662Z,14.53
2019-04-13T05:09:15.864Z,14.40
2019-04-13T05:09:47.085Z,14.35
2019-04-13T05:10:18.281Z,14.93
2019-04-13T05:10:49.533Z,15.18
2019-04-13T05:11:20.776Z,14.95
2019-04-13T05:11:51.988Z,13.65
2019-04-13T05:12:23.310Z,13.30
2019-04-13T05:12:54.462Z,14.53
2019-04-13T05:13:25.673Z,14.73
2019-04-13T05:13:56.885Z,15.80
2019-04-13T05:14:28.097Z,16.42
2019-04-13T05:14:59.299Z,14.25
2019-04-13T05:15:30.519Z,14.33
2019-04-13T05:16:01.732Z,14.98
2019-04-13T05:16:32.939Z,13.55
2019-04-13T05:17:04.158Z,13.62
2019-04-13T05:17:35.392Z,13.48
2019-04-13T05:18:06.601Z,14.23
2019-04-13T05:18:37.811Z,13.32
2019-04-13T05:19:09.016Z,12.88
2019-04-13T05:19:40.214Z,12.80
2019-04-13T05:20:11.428Z,12.80
2019-04-13T05:20:42.632Z,13.68
2019-04-13T05:21:13.837Z,11.73
2019-04-13T05:21:45.098Z,12.95
2019-04-13T05:22:25.644Z,11.63
2019-04-13T05:22:49.310Z,12.05
2019-04-13T05:23:20.536Z,11.55
2019-04-13T05:23:51.738Z,11.03
2019-04-13T05:24:22.950Z,11.60
2019-04-13T05:24:54.158Z,10.63
2019-04-13T05:25:25.369Z,11.38
2019-04-13T05:25:56.596Z,11.22
2019-04-13T05:26:27.819Z,11.93
2019-04-13T05:26:59.027Z,11.93
2019-04-13T05:27:30.279Z,13.22
2019-04-13T05:28:01.487Z,13.78
2019-04-13T05:28:32.701Z,13.88
2019-04-13T05:29:03.903Z,12.80
2019-04-13T05:29:35.124Z,13.78
2019-04-13T05:30:06.343Z,13.58
2019-04-13T05:30:37.541Z,14.35
2019-04-13T05:31:08.751Z,13.45
2019-04-13T05:31:39.954Z,13.20
2019-04-13T05:32:11.207Z,12.33
2019-04-13T05:32:42.411Z,13.05
2019-04-13T05:33:13.608Z,12.53
2019-04-13T05:33:44.811Z,12.75
2019-04-13T05:34:16.058Z,11.93
2019-04-13T05:34:47.266Z,12.47
2019-04-13T05:35:18.502Z,13.32
2019-04-13T05:35:49.715Z,13.53
2019-04-13T05:36:20.927Z,14.73
2019-04-13T05:36:52.134Z,12.98
2019-04-13T05:37:23.343Z,12.80
2019-04-13T05:37:54.541Z,13.98
2019-04-13T05:38:25.748Z,14.83
2019-04-13T05:38:57.003Z,14.05
2019-04-13T05:39:29.225Z,14.00
2019-04-13T05:40:00.527Z,14.33
2019-04-13T05:40:31.752Z,14.75
2019-04-13T05:41:02.958Z,13.93
2019-04-13T05:41:34.173Z,14.25
2019-04-13T05:42:05.392Z,14.50
2019-04-13T05:42:36.594Z,15.80
2019-04-13T05:43:07.824Z,13.85
2019-04-13T05:43:39.057Z,11.88
2019-04-13T05:44:10.270Z,12.88
2019-04-13T05:44:41.492Z,12.47
2019-04-13T05:45:13.301Z,13.98
2019-04-13T05:45:44.538Z,12.73
2019-04-13T05:46:15.715Z,13.80
2019-04-13T05:46:46.912Z,12.88
2019-04-13T05:47:18.122Z,13.22
2019-04-13T05:47:49.314Z,12.75
2019-04-13T05:48:20.535Z,12.30
2019-04-13T05:48:51.750Z,11.57
2019-04-13T05:49:22.959Z,12.00
2019-04-13T05:49:54.179Z,11.85
2019-04-13T05:50:25.450Z,13.13
2019-04-13T05:50:56.669Z,12.98
2019-04-13T05:51:27.893Z,13.48
2019-04-13T05:51:59.094Z,12.47
2019-04-13T05:52:30.292Z,12.37
2019-04-13T05:53:01.515Z,13.72
2019-04-13T05:53:32.719Z,13.68
2019-04-13T05:54:03.939Z,11.12
2019-04-13T05:54:35.149Z,12.33
2019-04-13T05:55:06.414Z,12.60
2019-04-13T05:55:37.664Z,12.10
2019-04-13T05:56:08.862Z,12.63
2019-04-13T05:56:40.067Z,12.10
2019-04-13T05:57:13.274Z,11.28
2019-04-13T05:57:44.206Z,11.40
2019-04-13T05:58:15.407Z,12.45
2019-04-13T05:58:46.668Z,12.37
2019-04-13T05:59:17.865Z,10.58
2019-04-13T05:59:49.087Z,10.98
2019-04-13T06:00:20.326Z,10.50
2019-04-13T06:00:51.568Z,11.18
2019-04-13T06:01:22.859Z,11.18
2019-04-13T06:01:54.386Z,10.30
2019-04-13T06:02:25.826Z,9.98
2019-04-13T06:02:57.155Z,10.30
2019-04-13T06:03:28.360Z,10.08
2019-04-13T06:03:59.567Z,11.28
2019-04-13T06:04:30.779Z,10.98
2019-04-13T06:05:01.993Z,10.38
2019-04-13T06:05:33.223Z,11.50
2019-04-13T06:06:04.437Z,10.68
2019-04-13T06:06:35.641Z,10.68
2019-04-13T06:07:06.843Z,10.82
2019-04-13T06:07:38.102Z,10.40
2019-04-13T06:08:09.327Z,10.53
2019-04-13T06:08:40.660Z,9.78
2019-04-13T06:09:12.802Z,9.03
2019-04-13T06:09:44.099Z,9.83
2019-04-13T06:10:15.347Z,10.23
2019-04-13T06:10:47.820Z,10.08
2019-04-13T06:11:19.471Z,10.45
2019-04-13T06:11:50.703Z,10.48
2019-04-13T06:12:23.691Z,11.10
2019-04-13T06:12:54.903Z,10.15
2019-04-13T06:13:26.113Z,11.28
2019-04-13T06:13:58.410Z,10.78
2019-04-13T06:14:31.100Z,9.75
2019-04-13T06:15:03.360Z,9.83
2019-04-13T06:15:34.820Z,10.32
2019-04-13T06:16:08.945Z,10.50
2019-04-13T06:16:40.258Z,11.22
2019-04-13T06:17:11.704Z,11.43
2019-04-13T06:17:42.916Z,11.53
2019-04-13T06:18:21.325Z,10.72
2019-04-13T06:18:47.054Z,10.70
2019-04-13T06:19:18.252Z,10.35
2019-04-13T06:19:49.486Z,10.30
2019-04-13T06:20:20.681Z,9.70
2019-04-13T06:20:51.894Z,10.40
2019-04-13T06:21:23.088Z,10.60
2019-04-13T06:21:54.349Z,10.30
2019-04-13T06:22:25.590Z,10.85
2019-04-13T06:22:56.809Z,10.05
2019-04-13T06:23:28.020Z,10.55
2019-04-13T06:23:59.222Z,10.53
2019-04-13T06:24:32.272Z,9.23
2019-04-13T06:25:03.354Z,9.95
2019-04-13T06:25:34.534Z,9.83
2019-04-13T06:26:05.772Z,9.68
2019-04-13T06:26:41.141Z,9.73
2019-04-13T06:27:11.483Z,9.45
2019-04-13T06:27:43.005Z,10.30
2019-04-13T06:28:14.725Z,9.53
2019-04-13T06:28:48.390Z,10.58
2019-04-13T06:29:21.070Z,9.98
2019-04-13T06:29:52.266Z,10.08
2019-04-13T06:30:23.485Z,10.20
2019-04-13T06:30:54.683Z,9.75
2019-04-13T06:31:25.890Z,9.95
2019-04-13T06:31:57.131Z,9.95
2019-04-13T06:32:28.383Z,10.53
2019-04-13T06:32:59.590Z,10.63
2019-04-13T06:33:30.822Z,10.53
2019-04-13T06:34:02.028Z,10.40
2019-04-13T06:34:33.231Z,10.75
2019-04-13T06:35:04.439Z,11.53
2019-04-13T06:35:35.650Z,11.22
2019-04-13T06:36:09.327Z,9.25
2019-04-13T06:36:41.848Z,9.70
2019-04-13T06:37:12.800Z,10.13
2019-04-13T06:37:48.195Z,10.60
2019-04-13T06:38:16.940Z,10.78
2019-04-13T06:38:48.205Z,10.88
2019-04-13T06:39:19.452Z,10.35
2019-04-13T06:39:50.663Z,8.45
2019-04-13T06:40:21.914Z,9.18
2019-04-13T06:40:53.125Z,8.43
2019-04-13T06:41:24.325Z,7.95
2019-04-13T06:41:55.542Z,8.33
2019-04-13T06:42:26.749Z,7.58
2019-04-13T06:42:58.038Z,7.80
2019-04-13T06:43:29.273Z,8.25
2019-04-13T06:44:01.331Z,8.53
2019-04-13T06:44:36.187Z,7.40
2019-04-13T06:45:05.996Z,8.00
2019-04-13T06:45:37.216Z,7.97